Time;durP1;ratioP1;P1;durP2;ratioP2;P2;SDS_P1;SDS_P2;PMS_P1;PMS_P2;Temp;Humidity;BMP_temperature;BMP_pressure;BME280_temperature;BME280_humidity;BME280_pressure;Samples;Min_cycle;Max_cycle;Signal;HPM_P1;HPM_P2
2022/03/22 00:02:31;;;;;;;1.08;0.90;;;22.30;42.00;;;;;;6346984;27;20103;-45
2022/03/22 00:05:34;;;;;;;0.70;0.50;;;22.30;41.90;;;;;;6346011;27;20100;-44
2022/03/22 00:08:36;;;;;;;0.80;0.73;;;22.40;42.00;;;;;;6347905;27;20752;-43
2022/03/22 00:11:37;;;;;;;1.40;1.23;;;22.20;41.80;;;;;;6347400;27;20118;-42
2022/03/22 00:14:39;;;;;;;0.75;0.70;;;22.30;41.80;;;;;;6347775;27;20137;-46
2022/03/22 00:18:02;;;;;;;1.35;1.08;;;22.30;41.80;;;;;;6335103;27;20858;-43
2022/03/22 00:21:06;;;;;;;1.00;0.82;;;22.20;41.70;;;;;;6330219;27;20152;-43
2022/03/22 00:24:08;;;;;;;0.90;0.70;;;22.20;41.60;;;;;;6347989;27;20883;-43
2022/03/22 00:27:09;;;;;;;1.58;1.00;;;22.30;41.60;;;;;;6341725;27;20043;-43
2022/03/22 00:30:11;;;;;;;;;;;22.20;41.50;;;;;;6346394;27;20039;-46
2022/03/22 00:33:13;;;;;;;2.13;1.10;;;22.30;41.60;;;;;;6346960;27;20054;-44
2022/03/22 00:36:14;;;;;;;1.00;0.90;;;22.20;41.50;;;;;;6343659;27;20065;-45
2022/03/22 00:39:18;;;;;;;0.93;0.82;;;22.20;41.40;;;;;;6346700;27;20042;-43
2022/03/22 00:42:21;;;;;;;0.93;0.80;;;22.20;41.30;;;;;;6327645;27;20897;-44
2022/03/22 00:45:26;;;;;;;1.00;0.82;;;22.10;41.20;;;;;;6352530;27;20110;-43
2022/03/22 00:48:27;;;;;;;0.88;0.80;;;22.20;41.20;;;;;;6331328;27;20110;-44
2022/03/22 00:51:29;;;;;;;1.38;1.00;;;22.20;41.10;;;;;;6350495;27;20582;-43
2022/03/22 00:54:32;;;;;;;1.10;1.00;;;22.20;41.10;;;;;;6330342;27;20070;-46
2022/03/22 00:57:34;;;;;;;1.10;1.00;;;22.10;40.90;;;;;;6330583;27;20142;-43
2022/03/22 01:00:36;;;;;;;1.02;0.90;;;22.20;40.90;;;;;;6329575;27;20098;-42
2022/03/22 01:03:39;;;;;;;1.10;1.00;;;22.20;40.90;;;;;;6333197;27;20037;-44
2022/03/22 01:06:42;;;;;;;1.10;1.00;;;22.20;40.80;;;;;;6350495;27;20050;-46
2022/03/22 01:09:44;;;;;;;;;;;22.20;40.80;;;;;;6334141;27;20038;-44
2022/03/22 01:12:47;;;;;;;0.90;0.80;;;22.20;40.70;;;;;;6353388;27;20115;-44
2022/03/22 01:15:50;;;;;;;1.02;0.88;;;22.20;40.70;;;;;;6257873;27;20050;-43
2022/03/22 01:18:51;;;;;;;1.30;0.90;;;22.20;40.70;;;;;;6357770;27;20078;-44
2022/03/22 01:21:52;;;;;;;;;;;22.20;40.60;;;;;;6332052;27;20041;-43
2022/03/22 01:24:55;;;;;;;;;;;22.20;40.60;;;;;;6354415;27;19922;-43
2022/03/22 01:28:03;;;;;;;1.15;1.00;;;22.20;40.60;;;;;;6358267;27;19934;-44
2022/03/22 01:31:05;;;;;;;1.00;0.90;;;22.20;40.60;;;;;;6332757;27;20047;-44
2022/03/22 01:34:07;;;;;;;1.20;1.00;;;22.20;40.40;;;;;;6353999;27;20163;-44
2022/03/22 01:37:08;;;;;;;2.03;1.33;;;22.20;40.40;;;;;;6351972;27;20054;-46
2022/03/22 01:40:11;;;;;;;1.10;0.90;;;22.20;40.30;;;;;;6333018;27;20149;-43
2022/03/22 01:43:13;;;;;;;1.58;1.15;;;22.20;40.30;;;;;;6354264;27;20074;-44
2022/03/22 01:46:15;;;;;;;1.85;1.25;;;22.20;40.20;;;;;;6350673;27;20822;-42
2022/03/22 01:49:19;;;;;;;1.20;1.10;;;22.30;40.20;;;;;;6352638;27;20085;-43
2022/03/22 01:52:24;;;;;;;1.40;1.20;;;22.10;40.10;;;;;;6354961;27;20058;-47
2022/03/22 01:55:27;;;;;;;1.30;1.17;;;22.20;40.10;;;;;;6355967;27;20956;-43
2022/03/22 01:58:29;;;;;;;1.58;1.25;;;22.10;39.90;;;;;;6354203;27;20046;-43
2022/03/22 02:08:10;;;;;;;1.13;1.00;;;22.10;39.80;;;;;;6344616;27;20077;-43
2022/03/22 02:11:12;;;;;;;1.10;1.00;;;22.10;39.70;;;;;;6358383;27;20171;-42
2022/03/22 02:14:14;;;;;;;1.30;1.20;;;22.10;39.70;;;;;;6362414;27;20041;-45
2022/03/22 02:17:15;;;;;;;;;;;22.10;39.60;;;;;;6360911;27;20959;-43
2022/03/22 02:20:17;;;;;;;1.48;1.38;;;22.20;39.70;;;;;;6355997;27;20044;-44
2022/03/22 02:23:21;;;;;;;1.52;1.42;;;22.00;39.50;;;;;;6360085;27;20043;-42
2022/03/22 02:26:25;;;;;;;1.58;1.30;;;22.00;39.40;;;;;;6360130;27;20149;-43
2022/03/22 02:29:27;;;;;;;1.35;1.25;;;22.00;39.40;;;;;;6338334;27;20893;-44
2022/03/22 02:32:28;;;;;;;1.42;1.33;;;21.90;39.20;;;;;;6358401;27;21535;-45
2022/03/22 02:35:30;;;;;;;;;;;22.00;39.20;;;;;;6359906;27;20149;-45
2022/03/22 02:38:31;;;;;;;;;;;22.00;39.30;;;;;;6362814;27;20818;-45
2022/03/22 02:41:34;;;;;;;1.88;1.45;;;21.90;39.20;;;;;;6357109;27;20495;-44
2022/03/22 02:44:36;;;;;;;1.70;1.38;;;22.00;39.30;;;;;;6359081;27;20096;-44
2022/03/22 02:47:37;;;;;;;1.52;1.25;;;22.00;39.20;;;;;;6358835;27;20042;-43
2022/03/22 02:50:39;;;;;;;1.48;1.38;;;22.00;39.20;;;;;;6359750;27;20042;-43
2022/03/22 02:53:41;;;;;;;1.58;1.45;;;22.00;39.10;;;;;;6360871;27;20145;-43
2022/03/22 02:56:43;;;;;;;1.25;1.15;;;21.90;38.90;;;;;;6359969;27;20569;-43
2022/03/22 02:59:44;;;;;;;2.03;1.70;;;22.00;38.90;;;;;;6360309;27;20925;-43
2022/03/22 03:02:49;;;;;;;1.73;1.40;;;22.00;38.90;;;;;;6355724;27;20057;-43
2022/03/22 03:05:52;;;;;;;1.30;1.20;;;21.90;39.30;;;;;;6357355;27;20764;-42
2022/03/22 03:08:54;;;;;;;1.50;1.33;;;21.90;38.70;;;;;;6362102;27;20079;-43
2022/03/22 03:11:56;;;;;;;1.45;1.20;;;21.80;38.60;;;;;;6359701;27;20039;-41
2022/03/22 03:14:57;;;;;;;1.60;1.42;;;21.90;38.60;;;;;;6359213;27;20195;-42
2022/03/22 03:17:59;;;;;;;1.52;1.42;;;22.00;38.50;;;;;;6360272;27;20150;-43
2022/03/22 03:21:00;;;;;;;1.38;1.27;;;21.80;38.40;;;;;;6338961;27;20069;-43
2022/03/22 03:24:02;;;;;;;1.67;1.58;;;21.70;38.30;;;;;;6351335;27;20031;-44
2022/03/22 03:27:04;;;;;;;1.45;1.35;;;21.90;38.30;;;;;;6355834;27;20909;-44
2022/03/22 03:30:08;;;;;;;1.65;1.55;;;21.80;38.20;;;;;;6357141;27;20844;-43
2022/03/22 03:33:09;;;;;;;1.67;1.40;;;21.90;38.20;;;;;;6356800;27;20042;-44
2022/03/22 03:36:11;;;;;;;1.52;1.42;;;21.90;38.10;;;;;;6355433;27;20067;-45
2022/03/22 03:39:13;;;;;;;1.70;1.60;;;21.90;38.10;;;;;;6356599;27;20129;-46
2022/03/22 03:42:15;;;;;;;1.58;1.42;;;21.90;38.00;;;;;;6352685;27;20158;-43
2022/03/22 03:48:32;;;;;;;1.58;1.40;;;21.80;37.90;;;;;;6356275;27;20139;-44
2022/03/22 03:51:34;;;;;;;1.50;1.40;;;21.80;37.80;;;;;;6354600;27;20992;-43
2022/03/22 03:54:36;;;;;;;1.40;1.30;;;21.90;38.40;;;;;;6337528;27;20057;-46
2022/03/22 03:57:39;;;;;;;1.70;1.60;;;21.80;37.80;;;;;;6354684;27;20085;-43
2022/03/22 04:00:40;;;;;;;2.10;1.52;;;21.80;37.70;;;;;;6355359;27;20138;-44
2022/03/22 04:03:42;;;;;;;1.35;1.20;;;21.80;37.60;;;;;;6356325;27;20437;-42
2022/03/22 04:06:44;;;;;;;;;;;21.70;37.40;;;;;;6354763;27;20134;-45
2022/03/22 04:09:46;;;;;;;1.27;1.15;;;21.80;37.60;;;;;;6353761;27;19919;-44
2022/03/22 04:12:48;;;;;;;1.70;1.40;;;21.80;37.50;;;;;;6352461;27;20119;-43
2022/03/22 04:15:50;;;;;;;1.40;1.20;;;21.60;37.40;;;;;;6352601;27;20114;-43
2022/03/22 04:18:51;;;;;;;1.80;1.60;;;21.80;37.40;;;;;;6356064;27;20149;-44
2022/03/22 04:21:53;;;;;;;1.48;1.38;;;21.70;37.30;;;;;;6355803;27;20080;-45
2022/03/22 04:24:54;;;;;;;1.55;1.45;;;21.80;37.20;;;;;;6355993;27;20043;-46
2022/03/22 04:34:27;;;;;;;1.58;1.40;;;21.80;37.20;;;;;;6353752;27;20043;-44
2022/03/22 04:37:30;;;;;;;1.67;1.58;;;21.60;37.00;;;;;;6357121;27;20035;-43
2022/03/22 04:40:32;;;;;;;1.60;1.50;;;21.70;37.10;;;;;;6357893;27;20184;-42
2022/03/22 04:43:34;;;;;;;1.70;1.60;;;21.70;36.90;;;;;;6356865;27;20148;-43
2022/03/22 04:46:36;;;;;;;1.50;1.40;;;21.60;36.80;;;;;;6355025;27;20120;-43
2022/03/22 04:49:37;;;;;;;1.58;1.45;;;21.70;36.80;;;;;;6354499;27;20047;-43
2022/03/22 04:59:08;;;;;;;1.42;1.33;;;21.70;36.60;;;;;;6337324;27;20071;-42
2022/03/22 05:02:10;;;;;;;1.85;1.38;;;21.60;36.50;;;;;;6351658;27;20125;-44
2022/03/22 05:05:11;;;;;;;1.55;1.42;;;21.60;36.50;;;;;;6338018;27;20605;-43
2022/03/22 05:08:13;;;;;;;1.27;1.17;;;21.70;36.60;;;;;;6354979;27;20705;-44
2022/03/22 05:11:15;;;;;;;1.40;1.30;;;21.70;36.50;;;;;;6350120;27;20921;-44
2022/03/22 05:14:17;;;;;;;1.73;1.40;;;21.70;36.50;;;;;;6346719;27;21033;-43
2022/03/22 05:17:21;;;;;;;1.38;1.27;;;21.60;36.40;;;;;;6352058;27;20039;-42
2022/03/22 05:20:23;;;;;;;1.65;1.48;;;21.60;36.30;;;;;;6350684;27;20073;-43
2022/03/22 05:23:24;;;;;;;1.33;1.23;;;21.70;36.30;;;;;;6351518;27;20231;-42
2022/03/22 05:26:26;;;;;;;;;;;21.60;36.20;;;;;;6352081;27;20984;-44
2022/03/22 05:29:28;;;;;;;1.67;1.48;;;21.60;36.20;;;;;;6348566;27;20045;-44
2022/03/22 05:32:29;;;;;;;1.35;1.25;;;21.70;36.30;;;;;;6349837;27;20156;-44
2022/03/22 05:35:31;;;;;;;;;;;21.60;36.20;;;;;;6355653;27;20137;-45
2022/03/22 05:38:33;;;;;;;1.20;1.10;;;21.60;36.10;;;;;;6354141;27;20014;-45
2022/03/22 05:41:34;;;;;;;1.60;1.20;;;21.60;36.20;;;;;;6349784;27;20137;-44
2022/03/22 05:44:36;;;;;;;1.35;1.23;;;21.60;36.10;;;;;;6352461;27;20154;-47
2022/03/22 05:47:39;;;;;;;1.35;1.25;;;21.60;36.70;;;;;;6333324;27;20453;-44
2022/03/22 05:50:40;;;;;;;1.40;1.30;;;21.50;36.60;;;;;;6350430;27;20155;-42
2022/03/22 05:53:41;;;;;;;;;;;21.50;35.90;;;;;;6349800;27;20070;-44
2022/03/22 05:56:43;;;;;;;1.10;0.93;;;21.50;35.90;;;;;;6346134;27;19929;-43
2022/03/22 05:59:45;;;;;;;;;;;21.50;35.90;;;;;;6347119;27;20573;-42
2022/03/22 06:02:46;;;;;;;1.30;1.20;;;21.60;35.90;;;;;;6344408;27;20924;-43
2022/03/22 06:05:49;;;;;;;1.30;1.05;;;21.50;35.90;;;;;;6341522;27;21087;-43
2022/03/22 06:08:51;;;;;;;1.20;1.05;;;21.40;35.70;;;;;;6347428;27;20043;-43
2022/03/22 06:11:53;;;;;;;1.38;1.23;;;21.50;35.70;;;;;;6346075;27;20038;-46
2022/03/22 06:15:14;;;;;;;1.23;0.93;;;21.50;35.60;;;;;;6343005;27;20120;-42
2022/03/22 06:18:16;;;;;;;1.20;1.00;;;21.70;35.70;;;;;;6346676;27;20066;-44
2022/03/22 06:21:17;;;;;;;1.40;1.15;;;21.60;35.60;;;;;;6347326;27;20178;-44
2022/03/22 06:24:19;;;;;;;1.40;1.23;;;21.50;35.50;;;;;;6342239;27;20150;-42
2022/03/22 06:27:20;;;;;;;;;;;21.50;35.40;;;;;;6345485;27;20855;-45
2022/03/22 06:30:24;;;;;;;1.00;0.82;;;21.50;35.60;;;;;;6339073;27;19947;-45
2022/03/22 06:33:26;;;;;;;1.30;1.20;;;21.50;35.50;;;;;;6341004;27;20045;-45
2022/03/22 06:36:27;;;;;;;1.38;1.00;;;21.50;35.40;;;;;;6337965;27;20930;-44
2022/03/22 06:39:29;;;;;;;1.20;0.98;;;21.50;35.40;;;;;;6341173;27;20038;-44
2022/03/22 06:42:31;;;;;;;1.30;1.10;;;21.50;35.30;;;;;;6336645;27;20141;-44
2022/03/22 06:45:33;;;;;;;1.20;1.10;;;21.60;35.30;;;;;;6334783;27;20667;-44
2022/03/22 06:48:35;;;;;;;1.13;1.02;;;21.50;35.10;;;;;;6336258;27;20519;-43
2022/03/22 06:51:36;;;;;;;;;;;21.60;35.00;;;;;;6332780;27;20038;-44
2022/03/22 06:54:38;;;;;;;1.27;1.17;;;21.60;35.00;;;;;;6332322;27;19922;-44
2022/03/22 06:57:40;;;;;;;1.10;1.00;;;21.60;35.00;;;;;;6332670;27;21083;-44
2022/03/22 07:00:42;;;;;;;1.38;1.25;;;21.70;35.00;;;;;;6339300;27;20077;-43
2022/03/22 07:03:44;;;;;;;1.15;1.05;;;21.70;34.80;;;;;;6331762;27;20063;-48
2022/03/22 07:06:46;;;;;;;1.17;1.08;;;21.70;34.70;;;;;;6321689;27;20054;-43
2022/03/22 07:09:48;;;;;;;1.50;1.20;;;21.80;34.60;;;;;;6329219;27;20118;-43
2022/03/22 07:12:51;;;;;;;1.20;1.10;;;21.80;34.60;;;;;;6325008;27;20049;-45
2022/03/22 07:15:53;;;;;;;1.20;1.10;;;21.80;34.50;;;;;;6307180;27;20088;-44
2022/03/22 07:18:55;;;;;;;1.40;1.13;;;21.80;34.40;;;;;;6331785;27;20038;-41
2022/03/22 07:21:57;;;;;;;;;;;21.90;34.30;;;;;;6324910;27;21066;-44
2022/03/22 07:24:59;;;;;;;1.88;1.02;;;21.80;34.20;;;;;;6327880;27;19927;-43
2022/03/22 07:28:01;;;;;;;;;;;21.90;34.30;;;;;;6293785;27;20043;-44
2022/03/22 07:31:03;;;;;;;1.42;1.33;;;21.80;34.20;;;;;;6293093;27;19985;-42
2022/03/22 07:34:06;;;;;;;1.20;1.10;;;21.90;34.10;;;;;;6285752;27;22422;-42
2022/03/22 07:37:07;;;;;;;1.35;1.25;;;22.00;34.10;;;;;;6294078;27;20440;-45
2022/03/22 07:40:11;;;;;;;2.13;1.30;;;22.00;33.90;;;;;;6285381;27;20062;-43
2022/03/22 07:43:13;;;;;;;1.15;1.05;;;21.90;33.80;;;;;;6272449;27;20038;-44
2022/03/22 07:46:15;;;;;;;1.30;1.20;;;22.10;33.80;;;;;;6262580;27;23296;-42
2022/03/22 07:55:47;;;;;;;1.80;1.50;;;22.10;33.60;;;;;;6236108;27;20079;-45
2022/03/22 07:58:49;;;;;;;2.08;1.70;;;22.10;33.60;;;;;;6222774;27;21740;-45
2022/03/22 08:01:51;;;;;;;;;;;22.20;33.50;;;;;;6192644;27;20046;-46
2022/03/22 08:04:53;;;;;;;2.00;1.67;;;22.20;33.40;;;;;;6169544;27;26059;-44
2022/03/22 08:07:55;;;;;;;2.88;1.65;;;22.20;33.40;;;;;;6160593;27;20046;-43
2022/03/22 08:11:10;;;;;;;2.95;1.95;;;22.20;33.40;;;;;;6177599;27;21257;-41
2022/03/22 08:14:13;;;;;;;3.13;2.00;;;22.70;33.50;;;;;;6162381;27;20145;-43
2022/03/22 08:17:15;;;;;;;2.28;2.08;;;22.20;33.20;;;;;;6152444;27;20047;-42
2022/03/22 08:20:17;;;;;;;2.40;1.90;;;22.20;33.00;;;;;;6158307;27;21584;-44
2022/03/22 08:23:18;;;;;;;2.40;1.80;;;22.30;32.90;;;;;;6149048;27;32309;-42
2022/03/22 08:26:20;;;;;;;3.40;1.90;;;22.30;32.90;;;;;;6150059;27;20041;-41
2022/03/22 08:29:21;;;;;;;3.75;2.25;;;22.20;32.80;;;;;;6157963;27;20054;-43
2022/03/22 08:32:24;;;;;;;2.97;1.85;;;22.30;32.80;;;;;;6150838;27;20815;-42
2022/03/22 08:35:27;;;;;;;2.10;1.85;;;22.30;32.70;;;;;;6115317;27;20046;-45
2022/03/22 08:38:29;;;;;;;2.83;2.15;;;22.50;32.70;;;;;;6142075;27;20041;-46
2022/03/22 08:41:32;;;;;;;3.65;2.15;;;22.40;32.60;;;;;;6161700;27;20034;-47
2022/03/22 08:44:33;;;;;;;2.55;2.00;;;22.30;32.40;;;;;;6173825;27;20054;-44
2022/03/22 08:47:35;;;;;;;3.30;2.25;;;22.40;32.40;;;;;;6116016;27;21732;-43
2022/03/22 08:50:38;;;;;;;2.90;2.35;;;22.30;32.40;;;;;;6158064;27;21652;-44
2022/03/22 08:53:40;;;;;;;2.67;2.30;;;22.30;32.40;;;;;;6134765;27;20059;-44
2022/03/22 08:56:42;;;;;;;2.53;2.08;;;22.40;32.30;;;;;;6112467;27;30740;-48
2022/03/22 08:59:43;;;;;;;3.22;2.25;;;22.40;32.10;;;;;;6081908;27;20054;-41
2022/03/22 09:02:47;;;;;;;3.35;2.67;;;22.40;32.10;;;;;;6070549;27;22073;-43
2022/03/22 09:09:01;;;;;;;3.90;2.30;;;22.40;32.00;;;;;;6116542;27;20046;-44
2022/03/22 09:12:03;;;;;;;3.70;2.25;;;22.40;32.00;;;;;;6112140;27;23319;-40
2022/03/22 09:15:06;;;;;;;2.30;2.00;;;22.50;31.90;;;;;;6089626;27;20157;-41
2022/03/22 09:18:13;;;;;;;2.60;2.10;;;22.50;31.80;;;;;;6087256;27;26916;-41
2022/03/22 09:21:20;;;;;;;2.35;2.15;;;22.50;31.80;;;;;;6077491;27;20038;-42
2022/03/22 09:24:22;;;;;;;2.75;2.10;;;22.50;31.70;;;;;;6109512;27;20131;-42
2022/03/22 09:27:24;;;;;;;1.95;1.67;;;22.50;31.70;;;;;;6100372;27;21821;-43
2022/03/22 09:30:26;;;;;;;2.55;2.13;;;22.60;31.70;;;;;;6114675;27;20034;-42
2022/03/22 09:33:28;;;;;;;2.05;1.70;;;22.50;31.70;;;;;;6080038;27;21482;-44
2022/03/22 09:36:31;;;;;;;2.00;1.80;;;22.50;31.60;;;;;;6049609;27;20043;-46
2022/03/22 09:39:32;;;;;;;1.83;1.38;;;22.40;31.50;;;;;;6073747;27;20285;-43
2022/03/22 09:42:35;;;;;;;2.22;1.63;;;22.60;31.40;;;;;;6075221;27;20079;-43
2022/03/22 09:45:37;;;;;;;1.95;1.55;;;22.60;31.40;;;;;;6101924;27;20070;-44
2022/03/22 09:48:40;;;;;;;1.60;1.42;;;22.70;31.30;;;;;;6087065;27;20043;-46
2022/03/22 09:51:46;;;;;;;1.90;1.30;;;22.70;31.30;;;;;;6060752;27;20039;-45
2022/03/22 09:54:47;;;;;;;1.35;1.10;;;22.70;31.30;;;;;;6034996;27;20144;-45
2022/03/22 09:57:50;;;;;;;1.40;1.10;;;22.80;31.30;;;;;;6051461;27;32020;-44
2022/03/22 10:00:51;;;;;;;1.23;1.05;;;22.80;31.20;;;;;;6021774;27;20161;-44
2022/03/22 10:03:57;;;;;;;2.78;1.45;;;22.80;31.20;;;;;;6022285;27;21222;-44
2022/03/22 10:07:06;;;;;;;1.23;0.90;;;22.80;31.10;;;;;;6033048;27;21679;-47
2022/03/22 10:10:09;;;;;;;2.10;1.10;;;22.80;31.10;;;;;;6021996;27;21080;-46
2022/03/22 10:13:14;;;;;;;1.23;0.75;;;22.90;31.00;;;;;;6038319;27;20043;-45
2022/03/22 10:16:16;;;;;;;0.90;0.80;;;22.90;30.90;;;;;;6071391;27;20079;-45
2022/03/22 10:19:22;;;;;;;1.00;0.90;;;23.10;31.00;;;;;;6064200;27;20058;-44
2022/03/22 10:22:25;;;;;;;1.40;1.00;;;22.90;30.80;;;;;;6042705;27;20153;-44
2022/03/22 10:25:29;;;;;;;1.20;1.10;;;22.90;30.80;;;;;;6035903;27;20149;-44
2022/03/22 10:28:31;;;;;;;1.13;1.02;;;23.00;30.80;;;;;;6007135;27;20042;-47
2022/03/22 10:31:34;;;;;;;1.77;1.30;;;23.00;30.80;;;;;;6052900;27;20054;-46
2022/03/22 10:34:36;;;;;;;1.30;1.10;;;23.00;30.70;;;;;;6064503;27;22117;-45
2022/03/22 10:37:39;;;;;;;1.38;0.95;;;23.10;30.80;;;;;;6080375;27;20047;-43
2022/03/22 10:40:44;;;;;;;1.33;1.02;;;23.00;30.90;;;;;;6098725;27;20132;-42
2022/03/22 10:43:46;;;;;;;1.42;1.10;;;23.00;30.70;;;;;;6088848;27;20054;-42
2022/03/22 10:46:48;;;;;;;1.33;1.20;;;23.00;30.60;;;;;;6073533;27;20124;-42
2022/03/22 10:50:01;;;;;;;1.20;1.00;;;23.10;30.70;;;;;;6073754;27;20056;-43
2022/03/22 10:53:04;;;;;;;1.40;1.13;;;23.10;30.90;;;;;;6077893;27;20041;-40
2022/03/22 10:56:06;;;;;;;1.30;1.10;;;23.10;30.70;;;;;;6057304;27;21682;-41
2022/03/22 10:59:07;;;;;;;1.70;1.00;;;23.10;30.80;;;;;;6088071;27;20053;-43
2022/03/22 11:02:11;;;;;;;1.60;1.40;;;23.20;30.70;;;;;;6071339;27;20047;-45
2022/03/22 11:05:15;;;;;;;1.00;0.90;;;23.10;30.70;;;;;;6094334;27;20042;-46
2022/03/22 11:08:18;;;;;;;1.17;1.08;;;23.30;30.80;;;;;;6044813;27;21279;-44
2022/03/22 11:11:20;;;;;;;1.05;0.82;;;23.20;30.80;;;;;;6125692;27;20046;-42
2022/03/22 11:14:22;;;;;;;1.17;0.98;;;23.10;30.70;;;;;;6106665;27;20042;-42
2022/03/22 11:17:27;;;;;;;0.77;0.70;;;23.20;30.70;;;;;;6105329;27;22410;-43
2022/03/22 11:20:30;;;;;;;1.85;1.10;;;23.20;30.80;;;;;;6088470;27;20142;-43
2022/03/22 11:23:33;;;;;;;1.33;0.90;;;23.20;30.70;;;;;;6122850;27;20066;-43
2022/03/22 11:26:43;;;;;;;1.30;0.90;;;23.20;30.80;;;;;;6112135;27;24313;-43
2022/03/22 11:29:47;;;;;;;1.83;1.45;;;23.30;30.70;;;;;;6131567;27;20148;-43
2022/03/22 11:36:15;;;;;;;1.60;1.50;;;23.10;30.70;;;;;;6126286;27;20039;-43
2022/03/22 11:39:19;;;;;;;2.80;1.80;;;23.00;30.70;;;;;;6156512;27;20039;-45
2022/03/22 11:42:22;;;;;;;2.63;1.83;;;22.90;30.80;;;;;;6163510;27;20077;-43
2022/03/22 11:45:25;;;;;;;2.30;1.85;;;22.90;31.00;;;;;;6169374;27;20162;-43
2022/03/22 11:48:31;;;;;;;2.50;1.63;;;22.90;31.10;;;;;;6145796;27;20143;-43
2022/03/22 11:51:36;;;;;;;2.03;1.50;;;22.90;31.10;;;;;;6190748;27;21996;-44
2022/03/22 11:54:38;;;;;;;2.85;1.77;;;22.90;31.20;;;;;;6204657;27;21290;-45
2022/03/22 11:57:42;;;;;;;2.13;1.70;;;22.90;31.30;;;;;;6220946;27;22897;-43
2022/03/22 12:00:46;;;;;;;2.42;1.42;;;22.80;31.30;;;;;;6220135;27;20060;-44
2022/03/22 12:03:51;;;;;;;2.05;1.40;;;22.90;31.50;;;;;;6219238;27;20039;-44
2022/03/22 12:06:54;;;;;;;1.95;1.50;;;22.80;31.50;;;;;;6216452;27;20066;-45
2022/03/22 12:10:05;;;;;;;2.70;1.73;;;22.80;31.40;;;;;;6203078;27;20162;-46
2022/03/22 12:13:07;;;;;;;2.20;1.87;;;22.90;31.50;;;;;;6202037;27;20138;-44
2022/03/22 12:16:09;;;;;;;2.55;1.98;;;22.60;31.30;;;;;;6203992;27;20085;-43
2022/03/22 12:19:11;;;;;;;2.80;2.40;;;22.90;31.50;;;;;;6186844;27;21287;-42
2022/03/22 12:22:14;;;;;;;2.78;2.47;;;22.90;31.70;;;;;;6188139;27;21509;-43
2022/03/22 12:25:18;;;;;;;3.10;1.85;;;23.00;31.70;;;;;;6180585;27;20043;-45
2022/03/22 12:28:20;;;;;;;2.00;1.55;;;23.00;31.70;;;;;;6191443;27;20045;-45
2022/03/22 12:31:21;;;;;;;3.00;1.83;;;23.00;31.80;;;;;;6216137;27;20908;-42
2022/03/22 12:34:24;;;;;;;2.72;2.17;;;23.10;31.80;;;;;;6183644;27;20047;-50
2022/03/22 12:37:27;;;;;;;3.10;2.15;;;23.00;31.80;;;;;;6160692;27;20130;-45
2022/03/22 12:40:29;;;;;;;2.50;1.70;;;23.00;31.90;;;;;;6215713;27;20179;-43
2022/03/22 12:43:30;;;;;;;2.85;1.80;;;23.00;31.90;;;;;;6192075;27;20150;-45
2022/03/22 12:46:32;;;;;;;2.38;1.80;;;23.00;32.00;;;;;;6163738;27;21318;-43
2022/03/22 12:49:39;;;;;;;2.63;2.13;;;23.00;32.00;;;;;;6177867;27;20078;-44
2022/03/22 12:52:42;;;;;;;2.55;1.80;;;22.90;32.10;;;;;;6170347;27;20161;-45
2022/03/22 12:55:44;;;;;;;3.20;1.88;;;23.10;32.10;;;;;;6136365;27;21961;-43
2022/03/22 12:58:46;;;;;;;3.22;2.28;;;23.20;32.10;;;;;;6122379;27;20369;-43
2022/03/22 13:01:57;;;;;;;2.28;2.00;;;23.10;32.10;;;;;;6123579;27;20073;-42
2022/03/22 13:04:59;;;;;;;2.60;2.08;;;23.20;32.30;;;;;;6053522;27;20054;-43
2022/03/22 13:08:02;;;;;;;3.58;1.92;;;23.20;32.20;;;;;;6113532;27;20058;-43
2022/03/22 13:17:41;;;;;;;2.75;2.13;;;23.40;32.20;;;;;;6096574;27;20083;-43
2022/03/22 13:20:43;;;;;;;2.33;2.05;;;23.50;32.20;;;;;;6114763;27;20150;-45
2022/03/22 13:23:46;;;;;;;2.97;1.80;;;23.60;32.10;;;;;;6095415;27;22046;-45
2022/03/22 13:26:53;;;;;;;2.08;1.70;;;23.40;32.00;;;;;;6071932;27;20050;-43
2022/03/22 13:29:55;;;;;;;2.75;2.33;;;23.60;31.90;;;;;;6071073;27;20422;-42
2022/03/22 13:33:06;;;;;;;3.05;2.20;;;23.60;31.90;;;;;;6100825;27;20046;-44
2022/03/22 13:36:08;;;;;;;3.80;2.13;;;23.60;31.80;;;;;;6066244;27;20100;-42
2022/03/22 13:39:10;;;;;;;3.17;2.00;;;23.70;31.80;;;;;;6075909;27;20042;-43
2022/03/22 13:42:15;;;;;;;2.30;2.10;;;23.70;31.90;;;;;;6092204;27;22687;-43
2022/03/22 13:45:21;;;;;;;2.60;2.22;;;23.70;31.80;;;;;;6074772;27;21000;-44
2022/03/22 13:48:23;;;;;;;2.90;2.05;;;23.70;31.80;;;;;;6085930;27;21519;-44
2022/03/22 13:51:25;;;;;;;2.67;1.80;;;23.70;31.70;;;;;;6084791;27;22317;-43
2022/03/22 13:54:28;;;;;;;2.85;2.10;;;23.70;31.70;;;;;;6074237;27;20123;-43
2022/03/22 13:57:36;;;;;;;3.72;2.42;;;23.70;31.70;;;;;;6070977;27;22095;-43
2022/03/22 14:00:40;;;;;;;3.13;2.28;;;23.80;31.70;;;;;;6075775;27;20047;-45
2022/03/22 14:03:43;;;;;;;1.80;1.60;;;23.80;31.80;;;;;;6096923;27;21361;-43
2022/03/22 14:06:45;;;;;;;1.98;1.60;;;23.90;31.80;;;;;;6059723;27;20659;-42
2022/03/22 14:09:47;;;;;;;2.05;1.50;;;23.80;31.50;;;;;;6068451;27;20128;-44
2022/03/22 14:12:49;;;;;;;1.60;1.50;;;23.70;31.40;;;;;;6076493;27;21046;-42
2022/03/22 14:15:51;;;;;;;1.50;1.35;;;23.90;31.50;;;;;;6068164;27;20035;-47
2022/03/22 14:18:53;;;;;;;1.77;1.40;;;23.90;31.50;;;;;;6056529;27;20043;-43
2022/03/22 14:22:03;;;;;;;2.30;1.50;;;23.90;31.50;;;;;;6095471;27;20152;-42
2022/03/22 14:25:06;;;;;;;2.63;1.73;;;23.90;31.60;;;;;;6083593;27;20154;-42
2022/03/22 14:28:08;;;;;;;2.10;1.77;;;23.90;31.60;;;;;;6064239;27;21561;-44
2022/03/22 14:31:10;;;;;;;2.25;1.80;;;23.90;31.60;;;;;;6057687;27;29973;-41
2022/03/22 14:35:46;;;;;;;1.90;1.52;;;23.80;31.50;;;;;;6088423;27;20049;-43
2022/03/22 14:37:35;;;;;;;2.00;1.60;;;24.00;31.60;;;;;;6074978;27;20177;-45
2022/03/22 14:40:39;;;;;;;1.65;1.55;;;23.90;31.50;;;;;;6078210;27;20047;-43
2022/03/22 14:43:40;;;;;;;3.78;1.63;;;24.00;31.60;;;;;;6065735;27;20095;-42
2022/03/22 14:46:43;;;;;;;2.55;1.83;;;24.00;31.60;;;;;;6058794;27;20225;-42
2022/03/22 14:49:45;;;;;;;1.88;1.40;;;24.00;31.50;;;;;;6068936;27;20054;-45
2022/03/22 14:59:21;;;;;;;1.67;1.40;;;24.00;31.50;;;;;;6036026;27;22595;-45
2022/03/22 15:02:23;;;;;;;2.42;1.90;;;24.00;31.60;;;;;;6014062;27;24842;-46
2022/03/22 15:05:34;;;;;;;2.42;1.80;;;24.00;31.70;;;;;;6015828;27;20426;-46
2022/03/22 15:08:39;;;;;;;1.83;1.63;;;24.00;31.60;;;;;;6027774;27;20043;-43
2022/03/22 15:11:41;;;;;;;1.73;1.63;;;24.00;31.60;;;;;;6036836;27;20039;-45
2022/03/22 15:14:43;;;;;;;1.92;1.38;;;23.90;31.60;;;;;;6019867;27;20043;-44
2022/03/22 15:17:45;;;;;;;2.40;1.77;;;24.10;31.70;;;;;;6017151;27;20153;-42
2022/03/22 15:20:46;;;;;;;2.17;1.95;;;24.00;31.70;;;;;;6023177;27;20047;-42
2022/03/22 15:23:48;;;;;;;2.95;1.80;;;24.00;31.80;;;;;;6092362;27;20039;-44
2022/03/22 15:26:51;;;;;;;2.55;1.88;;;24.00;31.70;;;;;;6071778;27;20144;-42
2022/03/22 15:29:52;;;;;;;1.77;1.58;;;24.00;31.90;;;;;;6070753;27;20042;-45
2022/03/22 15:33:07;;;;;;;2.33;1.50;;;24.00;31.60;;;;;;6027542;27;20283;-43
2022/03/22 15:36:09;;;;;;;3.72;1.90;;;23.90;31.50;;;;;;6061635;27;22133;-41
2022/03/22 15:39:11;;;;;;;2.70;2.10;;;24.10;31.60;;;;;;6063016;27;21224;-43
2022/03/22 15:42:13;;;;;;;2.83;2.08;;;24.10;31.50;;;;;;6073213;27;20052;-46
2022/03/22 15:45:17;;;;;;;2.95;2.65;;;24.10;31.50;;;;;;6055929;27;20042;-43
2022/03/22 15:48:22;;;;;;;4.13;2.08;;;24.20;31.60;;;;;;6026246;27;20158;-42
2022/03/22 15:51:23;;;;;;;3.40;2.38;;;24.20;31.60;;;;;;6058414;27;20034;-42
2022/03/22 15:54:25;;;;;;;2.83;2.63;;;24.20;31.60;;;;;;6063529;27;21223;-42
2022/03/22 15:57:28;;;;;;;2.30;2.10;;;24.20;31.50;;;;;;6085298;27;22311;-45
2022/03/22 16:00:31;;;;;;;4.38;2.20;;;24.20;31.50;;;;;;6068161;27;23905;-42
2022/03/22 16:03:34;;;;;;;2.97;2.20;;;24.10;31.40;;;;;;6066592;27;20871;-42
2022/03/22 16:06:37;;;;;;;2.83;2.28;;;24.20;31.40;;;;;;6043828;27;21269;-44
2022/03/22 16:09:39;;;;;;;3.25;2.28;;;24.20;31.40;;;;;;6066487;27;20779;-43
2022/03/22 16:12:42;;;;;;;3.90;2.38;;;24.20;31.30;;;;;;6061140;27;20523;-42
2022/03/22 16:15:46;;;;;;;2.78;2.20;;;24.10;31.30;;;;;;6070051;27;20043;-43
2022/03/22 16:18:47;;;;;;;2.65;2.25;;;24.10;31.20;;;;;;6075333;27;21309;-43
2022/03/22 16:21:50;;;;;;;2.40;2.10;;;24.10;31.20;;;;;;6076917;27;20043;-44
2022/03/22 16:24:52;;;;;;;1.98;1.77;;;24.20;31.30;;;;;;6072555;27;21760;-44
2022/03/22 16:27:55;;;;;;;1.77;1.60;;;24.20;31.30;;;;;;6043441;27;20165;-45
2022/03/22 16:30:57;;;;;;;2.17;1.77;;;24.20;31.20;;;;;;6060449;27;20173;-42
2022/03/22 16:37:20;;;;;;;2.45;1.75;;;24.10;31.00;;;;;;6081421;27;20475;-44
2022/03/22 16:40:22;;;;;;;1.60;1.45;;;24.20;31.00;;;;;;6105805;27;22528;-46
2022/03/22 16:43:27;;;;;;;1.90;1.50;;;24.10;31.00;;;;;;6123130;27;20132;-44
2022/03/22 16:46:30;;;;;;;1.38;1.20;;;24.20;30.90;;;;;;6119466;27;20083;-44
2022/03/22 16:49:31;;;;;;;1.73;1.33;;;24.20;30.90;;;;;;6119451;27;20371;-43